sensor_id;sensor_type;location;lat;lon;timestamp;P1;durP1;ratioP1;P2;durP2;ratioP2
22072;SDS011;11202;50.916;4.698;2022-09-09T00:00:21;8.98;;;3.25;;
22072;SDS011;11202;50.916;4.698;2022-09-09T00:03:00;6.70;;;2.40;;
22072;SDS011;11202;50.916;4.698;2022-09-09T00:05:41;5.40;;;2.45;;
22072;SDS011;11202;50.916;4.698;2022-09-09T00:08:20;6.60;;;2.75;;
22072;SDS011;11202;50.916;4.698;2022-09-09T00:10:56;11.07;;;2.85;;
22072;SDS011;11202;50.916;4.698;2022-09-09T00:16:12;7.07;;;2.47;;
22072;SDS011;11202;50.916;4.698;2022-09-09T00:21:37;6.40;;;2.17;;
22072;SDS011;11202;50.916;4.698;2022-09-09T00:24:13;13.07;;;2.50;;
22072;SDS011;11202;50.916;4.698;2022-09-09T00:26:48;5.63;;;2.50;;
22072;SDS011;11202;50.916;4.698;2022-09-09T00:29:27;12.57;;;3.10;;
22072;SDS011;11202;50.916;4.698;2022-09-09T00:32:05;9.73;;;2.88;;
22072;SDS011;11202;50.916;4.698;2022-09-09T00:34:39;6.10;;;2.47;;
22072;SDS011;11202;50.916;4.698;2022-09-09T00:37:19;7.60;;;2.60;;
22072;SDS011;11202;50.916;4.698;2022-09-09T00:39:47;10.65;;;2.15;;
22072;SDS011;11202;50.916;4.698;2022-09-09T00:42:24;5.68;;;2.15;;
22072;SDS011;11202;50.916;4.698;2022-09-09T00:45:02;8.13;;;2.70;;
22072;SDS011;11202;50.916;4.698;2022-09-09T00:47:46;7.50;;;2.88;;
22072;SDS011;11202;50.916;4.698;2022-09-09T00:50:35;9.10;;;2.67;;
22072;SDS011;11202;50.916;4.698;2022-09-09T00:56:23;7.65;;;2.60;;
22072;SDS011;11202;50.916;4.698;2022-09-09T00:59:20;5.35;;;2.00;;
22072;SDS011;11202;50.916;4.698;2022-09-09T01:01:51;6.57;;;2.30;;
22072;SDS011;11202;50.916;4.698;2022-09-09T01:04:22;8.68;;;2.50;;
22072;SDS011;11202;50.916;4.698;2022-09-09T01:06:57;8.65;;;2.85;;
22072;SDS011;11202;50.916;4.698;2022-09-09T01:15:08;12.23;;;2.92;;
22072;SDS011;11202;50.916;4.698;2022-09-09T01:26:26;9.23;;;2.50;;
22072;SDS011;11202;50.916;4.698;2022-09-09T01:29:00;6.78;;;2.25;;
22072;SDS011;11202;50.916;4.698;2022-09-09T01:31:27;7.88;;;2.20;;
22072;SDS011;11202;50.916;4.698;2022-09-09T01:33:57;6.60;;;2.30;;
22072;SDS011;11202;50.916;4.698;2022-09-09T01:37:08;6.20;;;2.28;;
22072;SDS011;11202;50.916;4.698;2022-09-09T01:39:27;5.63;;;1.90;;
22072;SDS011;11202;50.916;4.698;2022-09-09T01:41:53;8.27;;;2.50;;
22072;SDS011;11202;50.916;4.698;2022-09-09T01:44:21;7.72;;;2.40;;
22072;SDS011;11202;50.916;4.698;2022-09-09T01:46:47;11.05;;;2.42;;
22072;SDS011;11202;50.916;4.698;2022-09-09T01:49:16;8.10;;;2.75;;
22072;SDS011;11202;50.916;4.698;2022-09-09T01:51:42;7.22;;;2.85;;
22072;SDS011;11202;50.916;4.698;2022-09-09T01:54:09;13.07;;;3.25;;
22072;SDS011;11202;50.916;4.698;2022-09-09T01:56:54;7.35;;;2.13;;
22072;SDS011;11202;50.916;4.698;2022-09-09T02:02:16;10.73;;;2.60;;
22072;SDS011;11202;50.916;4.698;2022-09-09T02:04:50;9.48;;;2.05;;
22072;SDS011;11202;50.916;4.698;2022-09-09T02:07:25;9.43;;;2.58;;
22072;SDS011;11202;50.916;4.698;2022-09-09T02:12:38;10.75;;;2.38;;
22072;SDS011;11202;50.916;4.698;2022-09-09T02:15:11;8.57;;;2.35;;
22072;SDS011;11202;50.916;4.698;2022-09-09T02:17:44;14.27;;;2.78;;
22072;SDS011;11202;50.916;4.698;2022-09-09T02:20:14;10.40;;;2.30;;
22072;SDS011;11202;50.916;4.698;2022-09-09T02:22:41;9.95;;;2.50;;
22072;SDS011;11202;50.916;4.698;2022-09-09T02:25:12;10.15;;;2.38;;
22072;SDS011;11202;50.916;4.698;2022-09-09T02:27:41;8.70;;;2.70;;
22072;SDS011;11202;50.916;4.698;2022-09-09T02:30:11;10.45;;;2.88;;
22072;SDS011;11202;50.916;4.698;2022-09-09T02:32:37;10.88;;;2.40;;
22072;SDS011;11202;50.916;4.698;2022-09-09T02:35:12;8.77;;;2.50;;
22072;SDS011;11202;50.916;4.698;2022-09-09T02:37:42;11.68;;;2.50;;
22072;SDS011;11202;50.916;4.698;2022-09-09T02:40:11;8.57;;;2.40;;
22072;SDS011;11202;50.916;4.698;2022-09-09T02:42:40;10.85;;;2.80;;
22072;SDS011;11202;50.916;4.698;2022-09-09T02:45:08;8.20;;;2.60;;
22072;SDS011;11202;50.916;4.698;2022-09-09T02:47:38;11.57;;;2.70;;
22072;SDS011;11202;50.916;4.698;2022-09-09T02:57:56;7.57;;;2.10;;
22072;SDS011;11202;50.916;4.698;2022-09-09T03:00:27;10.63;;;2.53;;
22072;SDS011;11202;50.916;4.698;2022-09-09T03:02:53;8.45;;;2.38;;
22072;SDS011;11202;50.916;4.698;2022-09-09T03:05:20;12.50;;;2.63;;
22072;SDS011;11202;50.916;4.698;2022-09-09T03:07:47;7.60;;;2.30;;
22072;SDS011;11202;50.916;4.698;2022-09-09T03:10:13;14.10;;;2.53;;
22072;SDS011;11202;50.916;4.698;2022-09-09T03:12:42;10.05;;;2.60;;
22072;SDS011;11202;50.916;4.698;2022-09-09T03:15:08;12.95;;;2.60;;
22072;SDS011;11202;50.916;4.698;2022-09-09T03:17:35;12.45;;;2.85;;
22072;SDS011;11202;50.916;4.698;2022-09-09T03:20:02;8.52;;;2.20;;
22072;SDS011;11202;50.916;4.698;2022-09-09T03:22:29;11.25;;;2.80;;
22072;SDS011;11202;50.916;4.698;2022-09-09T03:24:55;12.30;;;2.78;;
22072;SDS011;11202;50.916;4.698;2022-09-09T03:27:21;12.18;;;2.72;;
22072;SDS011;11202;50.916;4.698;2022-09-09T03:29:46;12.48;;;2.70;;
22072;SDS011;11202;50.916;4.698;2022-09-09T03:32:12;17.27;;;2.65;;
22072;SDS011;11202;50.916;4.698;2022-09-09T03:34:42;8.63;;;2.20;;
22072;SDS011;11202;50.916;4.698;2022-09-09T03:37:08;9.02;;;2.58;;
22072;SDS011;11202;50.916;4.698;2022-09-09T03:39:34;8.18;;;2.88;;
22072;SDS011;11202;50.916;4.698;2022-09-09T03:41:59;10.73;;;2.30;;
22072;SDS011;11202;50.916;4.698;2022-09-09T03:44:28;12.60;;;2.50;;
22072;SDS011;11202;50.916;4.698;2022-09-09T03:46:55;9.23;;;2.22;;
22072;SDS011;11202;50.916;4.698;2022-09-09T03:49:21;11.93;;;2.90;;
22072;SDS011;11202;50.916;4.698;2022-09-09T03:51:47;9.73;;;2.50;;
22072;SDS011;11202;50.916;4.698;2022-09-09T03:54:13;8.18;;;2.30;;
22072;SDS011;11202;50.916;4.698;2022-09-09T03:56:39;13.23;;;2.30;;
22072;SDS011;11202;50.916;4.698;2022-09-09T03:59:06;11.15;;;2.70;;
22072;SDS011;11202;50.916;4.698;2022-09-09T04:01:33;13.07;;;2.60;;
22072;SDS011;11202;50.916;4.698;2022-09-09T04:03:59;11.88;;;2.30;;
22072;SDS011;11202;50.916;4.698;2022-09-09T04:06:27;13.63;;;2.05;;
22072;SDS011;11202;50.916;4.698;2022-09-09T04:08:53;11.27;;;2.85;;
22072;SDS011;11202;50.916;4.698;2022-09-09T04:11:20;13.48;;;2.75;;
22072;SDS011;11202;50.916;4.698;2022-09-09T04:13:45;17.30;;;2.65;;
22072;SDS011;11202;50.916;4.698;2022-09-09T04:16:12;15.35;;;2.65;;
22072;SDS011;11202;50.916;4.698;2022-09-09T04:18:43;12.77;;;2.40;;
22072;SDS011;11202;50.916;4.698;2022-09-09T04:21:09;14.50;;;2.83;;
22072;SDS011;11202;50.916;4.698;2022-09-09T04:23:37;14.30;;;2.83;;
22072;SDS011;11202;50.916;4.698;2022-09-09T04:26:03;15.68;;;2.80;;
22072;SDS011;11202;50.916;4.698;2022-09-09T04:28:32;15.18;;;2.80;;
22072;SDS011;11202;50.916;4.698;2022-09-09T04:31:04;9.85;;;2.55;;
22072;SDS011;11202;50.916;4.698;2022-09-09T04:33:31;12.35;;;2.83;;
22072;SDS011;11202;50.916;4.698;2022-09-09T04:35:57;15.40;;;3.15;;
22072;SDS011;11202;50.916;4.698;2022-09-09T04:38:26;13.40;;;2.45;;
22072;SDS011;11202;50.916;4.698;2022-09-09T04:40:52;11.52;;;2.50;;
22072;SDS011;11202;50.916;4.698;2022-09-09T04:43:21;10.77;;;2.53;;
22072;SDS011;11202;50.916;4.698;2022-09-09T04:45:48;14.82;;;3.25;;
22072;SDS011;11202;50.916;4.698;2022-09-09T04:48:16;10.07;;;2.65;;
22072;SDS011;11202;50.916;4.698;2022-09-09T04:50:44;10.77;;;2.60;;
22072;SDS011;11202;50.916;4.698;2022-09-09T04:53:18;9.10;;;2.65;;
22072;SDS011;11202;50.916;4.698;2022-09-09T04:55:47;8.35;;;2.70;;
22072;SDS011;11202;50.916;4.698;2022-09-09T04:58:12;11.90;;;2.38;;
22072;SDS011;11202;50.916;4.698;2022-09-09T05:00:38;10.90;;;2.83;;
22072;SDS011;11202;50.916;4.698;2022-09-09T05:03:05;13.05;;;3.15;;
22072;SDS011;11202;50.916;4.698;2022-09-09T05:05:33;11.10;;;2.58;;
22072;SDS011;11202;50.916;4.698;2022-09-09T05:08:05;12.32;;;2.92;;
22072;SDS011;11202;50.916;4.698;2022-09-09T05:10:34;13.18;;;3.88;;
22072;SDS011;11202;50.916;4.698;2022-09-09T05:13:03;15.50;;;3.28;;
22072;SDS011;11202;50.916;4.698;2022-09-09T05:15:29;9.48;;;3.08;;
22072;SDS011;11202;50.916;4.698;2022-09-09T05:17:59;9.55;;;2.72;;
22072;SDS011;11202;50.916;4.698;2022-09-09T05:20:26;14.02;;;3.22;;
22072;SDS011;11202;50.916;4.698;2022-09-09T05:22:55;12.23;;;2.97;;
22072;SDS011;11202;50.916;4.698;2022-09-09T05:25:22;14.77;;;3.33;;
22072;SDS011;11202;50.916;4.698;2022-09-09T05:27:51;13.53;;;3.23;;
22072;SDS011;11202;50.916;4.698;2022-09-09T05:30:18;13.70;;;3.00;;
22072;SDS011;11202;50.916;4.698;2022-09-09T05:32:49;15.15;;;3.00;;
22072;SDS011;11202;50.916;4.698;2022-09-09T05:35:15;11.85;;;2.60;;
22072;SDS011;11202;50.916;4.698;2022-09-09T05:37:42;9.73;;;3.10;;
22072;SDS011;11202;50.916;4.698;2022-09-09T05:40:11;9.65;;;2.90;;
22072;SDS011;11202;50.916;4.698;2022-09-09T05:42:37;15.52;;;3.20;;
22072;SDS011;11202;50.916;4.698;2022-09-09T05:45:04;13.85;;;2.95;;
22072;SDS011;11202;50.916;4.698;2022-09-09T05:47:30;15.02;;;3.47;;
22072;SDS011;11202;50.916;4.698;2022-09-09T05:49:55;14.30;;;2.92;;
22072;SDS011;11202;50.916;4.698;2022-09-09T05:52:23;12.35;;;2.92;;
22072;SDS011;11202;50.916;4.698;2022-09-09T05:54:50;16.35;;;2.65;;
22072;SDS011;11202;50.916;4.698;2022-09-09T05:57:19;12.10;;;3.33;;
22072;SDS011;11202;50.916;4.698;2022-09-09T05:59:45;14.55;;;2.85;;
22072;SDS011;11202;50.916;4.698;2022-09-09T06:02:11;11.60;;;2.40;;
22072;SDS011;11202;50.916;4.698;2022-09-09T06:04:38;10.00;;;2.33;;
22072;SDS011;11202;50.916;4.698;2022-09-09T06:07:04;12.63;;;2.63;;
22072;SDS011;11202;50.916;4.698;2022-09-09T06:09:33;11.55;;;2.63;;
22072;SDS011;11202;50.916;4.698;2022-09-09T06:11:59;14.45;;;2.38;;
22072;SDS011;11202;50.916;4.698;2022-09-09T06:14:25;9.60;;;2.70;;
22072;SDS011;11202;50.916;4.698;2022-09-09T06:16:51;11.52;;;2.22;;
22072;SDS011;11202;50.916;4.698;2022-09-09T06:19:18;13.85;;;2.45;;
22072;SDS011;11202;50.916;4.698;2022-09-09T06:21:46;9.00;;;2.55;;
22072;SDS011;11202;50.916;4.698;2022-09-09T06:24:12;11.85;;;2.47;;
22072;SDS011;11202;50.916;4.698;2022-09-09T06:26:42;9.60;;;2.35;;
22072;SDS011;11202;50.916;4.698;2022-09-09T06:29:08;14.57;;;3.28;;
22072;SDS011;11202;50.916;4.698;2022-09-09T06:31:35;19.05;;;2.55;;
22072;SDS011;11202;50.916;4.698;2022-09-09T06:34:04;18.00;;;2.80;;
22072;SDS011;11202;50.916;4.698;2022-09-09T06:36:34;12.68;;;2.10;;
22072;SDS011;11202;50.916;4.698;2022-09-09T06:39:04;14.95;;;3.10;;
22072;SDS011;11202;50.916;4.698;2022-09-09T06:41:31;11.00;;;2.22;;
22072;SDS011;11202;50.916;4.698;2022-09-09T06:43:58;12.48;;;2.22;;
22072;SDS011;11202;50.916;4.698;2022-09-09T06:46:27;11.55;;;2.08;;
22072;SDS011;11202;50.916;4.698;2022-09-09T06:48:55;6.57;;;2.10;;
22072;SDS011;11202;50.916;4.698;2022-09-09T06:51:24;7.85;;;2.05;;
22072;SDS011;11202;50.916;4.698;2022-09-09T06:54:01;9.65;;;2.13;;
22072;SDS011;11202;50.916;4.698;2022-09-09T06:56:35;11.80;;;2.40;;
22072;SDS011;11202;50.916;4.698;2022-09-09T06:59:03;14.52;;;2.63;;
22072;SDS011;11202;50.916;4.698;2022-09-09T07:01:34;12.90;;;3.08;;
22072;SDS011;11202;50.916;4.698;2022-09-09T07:04:03;12.80;;;2.33;;
22072;SDS011;11202;50.916;4.698;2022-09-09T07:06:32;8.15;;;2.35;;
22072;SDS011;11202;50.916;4.698;2022-09-09T07:09:06;11.57;;;2.53;;
22072;SDS011;11202;50.916;4.698;2022-09-09T07:11:34;11.55;;;2.15;;
22072;SDS011;11202;50.916;4.698;2022-09-09T07:14:06;14.30;;;2.47;;
22072;SDS011;11202;50.916;4.698;2022-09-09T07:16:33;9.13;;;2.03;;
22072;SDS011;11202;50.916;4.698;2022-09-09T07:19:04;6.75;;;2.30;;
22072;SDS011;11202;50.916;4.698;2022-09-09T07:21:30;11.50;;;2.38;;
22072;SDS011;11202;50.916;4.698;2022-09-09T07:23:58;15.93;;;2.42;;
22072;SDS011;11202;50.916;4.698;2022-09-09T07:26:25;8.40;;;2.28;;
22072;SDS011;11202;50.916;4.698;2022-09-09T07:28:53;10.10;;;2.28;;
22072;SDS011;11202;50.916;4.698;2022-09-09T07:31:22;9.15;;;2.47;;
22072;SDS011;11202;50.916;4.698;2022-09-09T07:33:53;7.45;;;1.90;;
22072;SDS011;11202;50.916;4.698;2022-09-09T07:36:20;12.80;;;2.60;;
22072;SDS011;11202;50.916;4.698;2022-09-09T07:38:52;11.82;;;2.08;;
22072;SDS011;11202;50.916;4.698;2022-09-09T07:41:22;11.70;;;2.63;;
22072;SDS011;11202;50.916;4.698;2022-09-09T07:43:50;9.82;;;2.10;;
22072;SDS011;11202;50.916;4.698;2022-09-09T07:46:19;12.50;;;2.35;;
22072;SDS011;11202;50.916;4.698;2022-09-09T07:48:47;11.98;;;2.05;;
22072;SDS011;11202;50.916;4.698;2022-09-09T07:51:18;10.07;;;2.30;;
22072;SDS011;11202;50.916;4.698;2022-09-09T07:53:46;9.70;;;2.05;;
22072;SDS011;11202;50.916;4.698;2022-09-09T07:56:13;10.68;;;2.47;;
22072;SDS011;11202;50.916;4.698;2022-09-09T07:58:46;11.27;;;2.30;;
22072;SDS011;11202;50.916;4.698;2022-09-09T08:01:17;12.05;;;2.45;;
22072;SDS011;11202;50.916;4.698;2022-09-09T08:03:46;11.18;;;2.35;;
22072;SDS011;11202;50.916;4.698;2022-09-09T08:06:17;16.00;;;3.60;;
22072;SDS011;11202;50.916;4.698;2022-09-09T08:08:49;8.50;;;2.28;;
22072;SDS011;11202;50.916;4.698;2022-09-09T08:11:16;13.73;;;2.92;;
22072;SDS011;11202;50.916;4.698;2022-09-09T08:13:43;10.00;;;2.35;;
22072;SDS011;11202;50.916;4.698;2022-09-09T08:16:10;9.88;;;2.28;;
22072;SDS011;11202;50.916;4.698;2022-09-09T08:18:36;7.85;;;2.28;;
22072;SDS011;11202;50.916;4.698;2022-09-09T08:21:06;9.55;;;2.70;;
22072;SDS011;11202;50.916;4.698;2022-09-09T08:23:43;10.02;;;2.05;;
22072;SDS011;11202;50.916;4.698;2022-09-09T08:26:13;14.63;;;2.45;;
22072;SDS011;11202;50.916;4.698;2022-09-09T08:28:44;14.45;;;2.47;;
22072;SDS011;11202;50.916;4.698;2022-09-09T08:31:14;11.77;;;2.55;;
22072;SDS011;11202;50.916;4.698;2022-09-09T08:33:43;9.80;;;2.25;;
22072;SDS011;11202;50.916;4.698;2022-09-09T08:36:16;9.68;;;2.15;;
22072;SDS011;11202;50.916;4.698;2022-09-09T08:38:46;9.57;;;1.80;;
22072;SDS011;11202;50.916;4.698;2022-09-09T08:55:24;8.68;;;2.60;;
22072;SDS011;11202;50.916;4.698;2022-09-09T08:58:14;13.25;;;2.03;;
22072;SDS011;11202;50.916;4.698;2022-09-09T09:08:51;10.07;;;2.10;;
22072;SDS011;11202;50.916;4.698;2022-09-09T09:11:38;8.85;;;2.40;;
22072;SDS011;11202;50.916;4.698;2022-09-09T09:14:12;11.85;;;2.53;;
22072;SDS011;11202;50.916;4.698;2022-09-09T09:16:52;12.05;;;2.50;;
22072;SDS011;11202;50.916;4.698;2022-09-09T09:19:19;6.40;;;1.98;;
22072;SDS011;11202;50.916;4.698;2022-09-09T09:21:49;12.70;;;2.95;;
22072;SDS011;11202;50.916;4.698;2022-09-09T09:27:13;10.18;;;2.35;;
22072;SDS011;11202;50.916;4.698;2022-09-09T09:29:40;11.52;;;2.33;;
22072;SDS011;11202;50.916;4.698;2022-09-09T09:32:09;10.73;;;2.42;;
22072;SDS011;11202;50.916;4.698;2022-09-09T09:34:39;13.45;;;2.35;;
22072;SDS011;11202;50.916;4.698;2022-09-09T09:37:07;8.43;;;2.20;;
22072;SDS011;11202;50.916;4.698;2022-09-09T09:39:52;9.18;;;2.20;;
22072;SDS011;11202;50.916;4.698;2022-09-09T09:42:18;10.00;;;2.30;;
22072;SDS011;11202;50.916;4.698;2022-09-09T09:44:44;10.50;;;2.28;;
22072;SDS011;11202;50.916;4.698;2022-09-09T09:47:15;8.15;;;1.90;;
22072;SDS011;11202;50.916;4.698;2022-09-09T09:52:22;11.00;;;2.17;;
22072;SDS011;11202;50.916;4.698;2022-09-09T09:54:49;9.05;;;2.47;;
22072;SDS011;11202;50.916;4.698;2022-09-09T09:57:17;12.00;;;3.25;;
22072;SDS011;11202;50.916;4.698;2022-09-09T09:59:48;9.98;;;2.40;;
22072;SDS011;11202;50.916;4.698;2022-09-09T10:05:01;13.07;;;2.60;;
22072;SDS011;11202;50.916;4.698;2022-09-09T10:07:37;9.60;;;2.47;;
22072;SDS011;11202;50.916;4.698;2022-09-09T10:10:04;12.27;;;2.53;;
22072;SDS011;11202;50.916;4.698;2022-09-09T10:12:33;11.93;;;2.55;;
22072;SDS011;11202;50.916;4.698;2022-09-09T10:20:50;11.35;;;2.30;;
22072;SDS011;11202;50.916;4.698;2022-09-09T10:23:38;9.00;;;2.55;;
22072;SDS011;11202;50.916;4.698;2022-09-09T10:31:37;12.10;;;3.03;;
22072;SDS011;11202;50.916;4.698;2022-09-09T10:37:06;7.93;;;2.35;;
22072;SDS011;11202;50.916;4.698;2022-09-09T10:40:02;12.50;;;2.78;;
22072;SDS011;11202;50.916;4.698;2022-09-09T10:42:45;8.38;;;2.33;;
22072;SDS011;11202;50.916;4.698;2022-09-09T10:45:18;15.82;;;2.65;;
22072;SDS011;11202;50.916;4.698;2022-09-09T10:53:14;7.82;;;2.40;;
22072;SDS011;11202;50.916;4.698;2022-09-09T10:56:04;10.15;;;2.53;;
22072;SDS011;11202;50.916;4.698;2022-09-09T10:58:50;10.70;;;2.60;;
22072;SDS011;11202;50.916;4.698;2022-09-09T11:01:25;10.20;;;2.30;;
22072;SDS011;11202;50.916;4.698;2022-09-09T11:04:02;8.00;;;2.20;;
22072;SDS011;11202;50.916;4.698;2022-09-09T11:06:38;7.72;;;2.15;;
22072;SDS011;11202;50.916;4.698;2022-09-09T11:09:08;9.35;;;2.53;;
22072;SDS011;11202;50.916;4.698;2022-09-09T11:11:46;6.68;;;1.95;;
22072;SDS011;11202;50.916;4.698;2022-09-09T11:14:38;10.23;;;2.70;;
22072;SDS011;11202;50.916;4.698;2022-09-09T11:17:10;10.18;;;2.30;;
22072;SDS011;11202;50.916;4.698;2022-09-09T11:19:42;6.30;;;2.00;;
22072;SDS011;11202;50.916;4.698;2022-09-09T11:22:15;6.82;;;1.92;;
22072;SDS011;11202;50.916;4.698;2022-09-09T11:25:16;8.55;;;2.08;;
22072;SDS011;11202;50.916;4.698;2022-09-09T11:38:50;6.78;;;1.45;;
22072;SDS011;11202;50.916;4.698;2022-09-09T11:41:20;5.75;;;1.70;;
22072;SDS011;11202;50.916;4.698;2022-09-09T11:43:47;6.13;;;1.55;;
22072;SDS011;11202;50.916;4.698;2022-09-09T11:46:18;8.50;;;1.77;;
22072;SDS011;11202;50.916;4.698;2022-09-09T11:48:58;5.60;;;1.38;;
22072;SDS011;11202;50.916;4.698;2022-09-09T11:51:29;8.00;;;1.58;;
22072;SDS011;11202;50.916;4.698;2022-09-09T11:54:00;6.68;;;1.67;;
22072;SDS011;11202;50.916;4.698;2022-09-09T11:56:46;6.28;;;2.20;;
22072;SDS011;11202;50.916;4.698;2022-09-09T12:01:54;10.82;;;2.00;;
22072;SDS011;11202;50.916;4.698;2022-09-09T12:04:38;7.03;;;1.98;;
22072;SDS011;11202;50.916;4.698;2022-09-09T12:07:22;8.38;;;1.92;;
22072;SDS011;11202;50.916;4.698;2022-09-09T12:10:19;6.72;;;1.98;;
22072;SDS011;11202;50.916;4.698;2022-09-09T12:12:53;7.03;;;1.48;;
22072;SDS011;11202;50.916;4.698;2022-09-09T12:15:21;6.90;;;1.85;;
22072;SDS011;11202;50.916;4.698;2022-09-09T12:17:51;5.40;;;1.27;;
22072;SDS011;11202;50.916;4.698;2022-09-09T12:20:21;4.60;;;1.50;;
22072;SDS011;11202;50.916;4.698;2022-09-09T12:32:06;5.80;;;1.70;;
22072;SDS011;11202;50.916;4.698;2022-09-09T12:34:19;4.75;;;1.75;;
22072;SDS011;11202;50.916;4.698;2022-09-09T12:36:57;6.25;;;1.95;;
22072;SDS011;11202;50.916;4.698;2022-09-09T12:39:32;6.38;;;1.40;;
22072;SDS011;11202;50.916;4.698;2022-09-09T12:42:00;5.40;;;1.50;;
22072;SDS011;11202;50.916;4.698;2022-09-09T12:44:28;4.72;;;1.40;;
22072;SDS011;11202;50.916;4.698;2022-09-09T12:46:58;7.25;;;1.83;;
22072;SDS011;11202;50.916;4.698;2022-09-09T12:52:06;4.25;;;1.40;;
22072;SDS011;11202;50.916;4.698;2022-09-09T12:54:34;5.55;;;1.73;;
22072;SDS011;11202;50.916;4.698;2022-09-09T12:57:01;5.25;;;1.73;;
22072;SDS011;11202;50.916;4.698;2022-09-09T12:59:37;10.75;;;1.85;;
22072;SDS011;11202;50.916;4.698;2022-09-09T13:02:21;6.70;;;2.10;;
22072;SDS011;11202;50.916;4.698;2022-09-09T13:04:48;9.30;;;1.90;;
22072;SDS011;11202;50.916;4.698;2022-09-09T13:07:15;4.38;;;1.60;;
22072;SDS011;11202;50.916;4.698;2022-09-09T13:09:43;7.30;;;1.40;;
22072;SDS011;11202;50.916;4.698;2022-09-09T13:12:15;11.83;;;1.53;;
22072;SDS011;11202;50.916;4.698;2022-09-09T13:14:44;6.35;;;2.22;;
22072;SDS011;11202;50.916;4.698;2022-09-09T13:17:24;5.53;;;1.85;;
22072;SDS011;11202;50.916;4.698;2022-09-09T13:19:53;5.32;;;1.63;;
22072;SDS011;11202;50.916;4.698;2022-09-09T13:22:37;8.25;;;1.67;;
22072;SDS011;11202;50.916;4.698;2022-09-09T13:27:35;11.35;;;1.50;;
22072;SDS011;11202;50.916;4.698;2022-09-09T13:32:59;4.50;;;1.10;;
22072;SDS011;11202;50.916;4.698;2022-09-09T13:35:26;5.57;;;1.10;;
22072;SDS011;11202;50.916;4.698;2022-09-09T13:37:52;2.67;;;1.10;;
22072;SDS011;11202;50.916;4.698;2022-09-09T13:40:20;5.07;;;1.20;;
22072;SDS011;11202;50.916;4.698;2022-09-09T13:42:50;5.05;;;1.40;;
22072;SDS011;11202;50.916;4.698;2022-09-09T13:45:20;8.10;;;1.40;;
22072;SDS011;11202;50.916;4.698;2022-09-09T13:47:48;3.77;;;1.37;;
22072;SDS011;11202;50.916;4.698;2022-09-09T13:52:51;5.38;;;1.85;;
22072;SDS011;11202;50.916;4.698;2022-09-09T13:55:23;5.60;;;1.45;;
22072;SDS011;11202;50.916;4.698;2022-09-09T14:00:21;3.47;;;1.42;;
22072;SDS011;11202;50.916;4.698;2022-09-09T14:02:49;5.32;;;1.40;;
22072;SDS011;11202;50.916;4.698;2022-09-09T14:05:15;2.72;;;1.33;;
22072;SDS011;11202;50.916;4.698;2022-09-09T14:07:42;3.58;;;1.23;;
22072;SDS011;11202;50.916;4.698;2022-09-09T14:10:08;5.38;;;1.38;;
22072;SDS011;11202;50.916;4.698;2022-09-09T14:12:35;3.15;;;1.00;;
22072;SDS011;11202;50.916;4.698;2022-09-09T14:15:01;5.30;;;1.50;;
22072;SDS011;11202;50.916;4.698;2022-09-09T14:17:28;4.97;;;1.45;;
22072;SDS011;11202;50.916;4.698;2022-09-09T14:19:55;2.95;;;1.00;;
22072;SDS011;11202;50.916;4.698;2022-09-09T14:22:23;4.88;;;1.13;;
22072;SDS011;11202;50.916;4.698;2022-09-09T14:24:50;3.90;;;1.23;;
22072;SDS011;11202;50.916;4.698;2022-09-09T14:27:16;3.78;;;1.10;;
22072;SDS011;11202;50.916;4.698;2022-09-09T14:29:43;3.65;;;1.23;;
22072;SDS011;11202;50.916;4.698;2022-09-09T14:32:10;4.03;;;1.15;;
22072;SDS011;11202;50.916;4.698;2022-09-09T14:34:39;6.03;;;1.45;;
22072;SDS011;11202;50.916;4.698;2022-09-09T14:37:05;2.33;;;1.08;;
22072;SDS011;11202;50.916;4.698;2022-09-09T14:39:31;3.08;;;1.40;;
22072;SDS011;11202;50.916;4.698;2022-09-09T14:41:57;3.63;;;1.60;;
22072;SDS011;11202;50.916;4.698;2022-09-09T14:44:23;6.13;;;1.80;;
22072;SDS011;11202;50.916;4.698;2022-09-09T14:46:49;4.45;;;1.58;;
22072;SDS011;11202;50.916;4.698;2022-09-09T14:49:19;3.97;;;1.40;;
22072;SDS011;11202;50.916;4.698;2022-09-09T14:51:44;3.85;;;1.48;;
22072;SDS011;11202;50.916;4.698;2022-09-09T14:54:10;5.22;;;1.30;;
22072;SDS011;11202;50.916;4.698;2022-09-09T14:56:37;4.22;;;1.42;;
22072;SDS011;11202;50.916;4.698;2022-09-09T14:59:05;5.60;;;1.50;;
22072;SDS011;11202;50.916;4.698;2022-09-09T15:01:31;3.97;;;1.45;;
22072;SDS011;11202;50.916;4.698;2022-09-09T15:04:00;5.50;;;1.55;;
22072;SDS011;11202;50.916;4.698;2022-09-09T15:06:29;3.22;;;1.50;;
22072;SDS011;11202;50.916;4.698;2022-09-09T15:09:00;3.97;;;1.73;;
22072;SDS011;11202;50.916;4.698;2022-09-09T15:11:27;4.65;;;1.85;;
22072;SDS011;11202;50.916;4.698;2022-09-09T15:13:55;6.32;;;1.83;;
22072;SDS011;11202;50.916;4.698;2022-09-09T15:16:25;7.95;;;1.98;;
22072;SDS011;11202;50.916;4.698;2022-09-09T15:18:53;6.68;;;1.85;;
22072;SDS011;11202;50.916;4.698;2022-09-09T15:21:21;7.63;;;1.40;;
22072;SDS011;11202;50.916;4.698;2022-09-09T15:23:51;10.80;;;2.55;;
22072;SDS011;11202;50.916;4.698;2022-09-09T15:26:18;4.07;;;1.47;;
22072;SDS011;11202;50.916;4.698;2022-09-09T15:28:46;3.28;;;1.30;;
22072;SDS011;11202;50.916;4.698;2022-09-09T15:33:49;8.13;;;1.40;;
22072;SDS011;11202;50.916;4.698;2022-09-09T15:36:25;3.05;;;1.25;;
22072;SDS011;11202;50.916;4.698;2022-09-09T15:38:54;2.33;;;1.30;;
22072;SDS011;11202;50.916;4.698;2022-09-09T15:41:22;5.15;;;1.23;;
22072;SDS011;11202;50.916;4.698;2022-09-09T15:43:49;4.18;;;1.30;;
22072;SDS011;11202;50.916;4.698;2022-09-09T15:48:43;5.25;;;1.40;;
22072;SDS011;11202;50.916;4.698;2022-09-09T15:51:10;4.18;;;1.30;;
22072;SDS011;11202;50.916;4.698;2022-09-09T15:53:39;7.05;;;1.77;;
22072;SDS011;11202;50.916;4.698;2022-09-09T15:56:05;3.88;;;1.80;;
22072;SDS011;11202;50.916;4.698;2022-09-09T15:58:33;4.47;;;1.42;;
22072;SDS011;11202;50.916;4.698;2022-09-09T16:01:10;2.95;;;1.20;;
22072;SDS011;11202;50.916;4.698;2022-09-09T16:03:39;4.60;;;1.20;;
22072;SDS011;11202;50.916;4.698;2022-09-09T16:06:11;4.47;;;1.40;;
22072;SDS011;11202;50.916;4.698;2022-09-09T16:08:38;9.68;;;1.30;;
22072;SDS011;11202;50.916;4.698;2022-09-09T16:13:40;4.57;;;1.42;;
22072;SDS011;11202;50.916;4.698;2022-09-09T16:16:07;4.40;;;1.25;;
22072;SDS011;11202;50.916;4.698;2022-09-09T16:18:53;3.60;;;1.30;;
22072;SDS011;11202;50.916;4.698;2022-09-09T16:21:22;3.63;;;1.63;;
22072;SDS011;11202;50.916;4.698;2022-09-09T16:23:52;4.80;;;1.70;;
22072;SDS011;11202;50.916;4.698;2022-09-09T16:26:21;3.80;;;1.42;;
22072;SDS011;11202;50.916;4.698;2022-09-09T16:28:48;5.88;;;1.63;;
22072;SDS011;11202;50.916;4.698;2022-09-09T16:31:24;2.42;;;1.30;;
22072;SDS011;11202;50.916;4.698;2022-09-09T16:33:50;4.72;;;1.85;;
22072;SDS011;11202;50.916;4.698;2022-09-09T16:36:18;6.32;;;1.88;;
22072;SDS011;11202;50.916;4.698;2022-09-09T16:38:57;5.05;;;1.70;;
22072;SDS011;11202;50.916;4.698;2022-09-09T16:41:25;6.32;;;1.67;;
22072;SDS011;11202;50.916;4.698;2022-09-09T16:43:55;4.07;;;1.50;;
22072;SDS011;11202;50.916;4.698;2022-09-09T16:46:23;7.53;;;1.75;;
22072;SDS011;11202;50.916;4.698;2022-09-09T16:48:49;9.43;;;1.90;;
22072;SDS011;11202;50.916;4.698;2022-09-09T16:51:20;4.28;;;1.80;;
22072;SDS011;11202;50.916;4.698;2022-09-09T16:53:51;12.85;;;2.45;;
22072;SDS011;11202;50.916;4.698;2022-09-09T16:56:19;6.03;;;1.88;;
22072;SDS011;11202;50.916;4.698;2022-09-09T16:58:51;7.10;;;1.80;;
22072;SDS011;11202;50.916;4.698;2022-09-09T17:01:20;4.70;;;1.55;;
22072;SDS011;11202;50.916;4.698;2022-09-09T17:03:46;5.40;;;1.73;;
22072;SDS011;11202;50.916;4.698;2022-09-09T17:06:13;7.13;;;1.45;;
22072;SDS011;11202;50.916;4.698;2022-09-09T17:08:40;2.10;;;1.35;;
22072;SDS011;11202;50.916;4.698;2022-09-09T17:11:17;5.88;;;1.50;;